sensor_id;sensor_type;location;lat;lon;timestamp;temperature;humidity
15072;DHT22;7635;56.696;13.002;2023-03-01T00:01:00;-1.20;99.90
15072;DHT22;7635;56.696;13.002;2023-03-01T00:03:28;-1.30;99.90
15072;DHT22;7635;56.696;13.002;2023-03-01T00:05:56;-1.30;99.90
15072;DHT22;7635;56.696;13.002;2023-03-01T00:08:22;-1.30;99.90
15072;DHT22;7635;56.696;13.002;2023-03-01T00:10:49;-1.30;99.90
15072;DHT22;7635;56.696;13.002;2023-03-01T00:13:16;-1.30;99.90
15072;DHT22;7635;56.696;13.002;2023-03-01T00:15:42;-1.30;99.90
15072;DHT22;7635;56.696;13.002;2023-03-01T00:18:09;-1.30;99.90
15072;DHT22;7635;56.696;13.002;2023-03-01T00:20:36;-1.20;99.90
15072;DHT22;7635;56.696;13.002;2023-03-01T00:23:04;-1.20;99.90
15072;DHT22;7635;56.696;13.002;2023-03-01T00:25:30;-1.20;99.90
15072;DHT22;7635;56.696;13.002;2023-03-01T00:27:57;-1.30;99.90
15072;DHT22;7635;56.696;13.002;2023-03-01T00:30:24;-1.30;99.90
15072;DHT22;7635;56.696;13.002;2023-03-01T00:32:50;-1.30;99.90
15072;DHT22;7635;56.696;13.002;2023-03-01T00:35:17;-1.30;99.90
15072;DHT22;7635;56.696;13.002;2023-03-01T00:37:44;-1.30;99.90
15072;DHT22;7635;56.696;13.002;2023-03-01T00:40:13;-1.30;99.90
15072;DHT22;7635;56.696;13.002;2023-03-01T00:42:41;-1.40;99.90
15072;DHT22;7635;56.696;13.002;2023-03-01T00:45:09;-1.40;99.90
15072;DHT22;7635;56.696;13.002;2023-03-01T00:47:35;-1.40;99.90
15072;DHT22;7635;56.696;13.002;2023-03-01T00:50:02;-1.40;99.90
15072;DHT22;7635;56.696;13.002;2023-03-01T00:52:29;-1.40;99.90
15072;DHT22;7635;56.696;13.002;2023-03-01T00:54:56;-1.40;99.90
15072;DHT22;7635;56.696;13.002;2023-03-01T00:57:24;-1.50;99.90
15072;DHT22;7635;56.696;13.002;2023-03-01T00:59:51;-1.50;99.90
15072;DHT22;7635;56.696;13.002;2023-03-01T01:02:18;-1.50;99.90
15072;DHT22;7635;56.696;13.002;2023-03-01T01:04:45;-1.50;99.90
15072;DHT22;7635;56.696;13.002;2023-03-01T01:07:12;-1.50;99.90
15072;DHT22;7635;56.696;13.002;2023-03-01T01:09:40;-1.60;99.90
15072;DHT22;7635;56.696;13.002;2023-03-01T01:12:08;-1.50;99.90
15072;DHT22;7635;56.696;13.002;2023-03-01T01:14:36;-1.60;99.90
15072;DHT22;7635;56.696;13.002;2023-03-01T01:17:02;-1.60;99.90
15072;DHT22;7635;56.696;13.002;2023-03-01T01:19:29;-1.60;99.90
15072;DHT22;7635;56.696;13.002;2023-03-01T01:21:56;-1.60;99.90
15072;DHT22;7635;56.696;13.002;2023-03-01T01:24:23;-1.60;99.90
15072;DHT22;7635;56.696;13.002;2023-03-01T01:26:49;-1.60;99.90
15072;DHT22;7635;56.696;13.002;2023-03-01T01:29:16;-1.60;99.90
15072;DHT22;7635;56.696;13.002;2023-03-01T01:31:44;-1.60;99.90
15072;DHT22;7635;56.696;13.002;2023-03-01T01:34:14;-1.70;99.90
15072;DHT22;7635;56.696;13.002;2023-03-01T01:36:41;-1.70;99.90
15072;DHT22;7635;56.696;13.002;2023-03-01T01:39:08;-1.70;99.90
15072;DHT22;7635;56.696;13.002;2023-03-01T01:41:39;-1.80;99.90
15072;DHT22;7635;56.696;13.002;2023-03-01T01:44:18;-1.80;99.90
15072;DHT22;7635;56.696;13.002;2023-03-01T01:46:49;-1.80;99.90
15072;DHT22;7635;56.696;13.002;2023-03-01T01:49:22;-1.80;99.90
15072;DHT22;7635;56.696;13.002;2023-03-01T01:51:53;-1.80;99.90
15072;DHT22;7635;56.696;13.002;2023-03-01T01:54:25;-1.80;99.90
15072;DHT22;7635;56.696;13.002;2023-03-01T01:56:56;-1.80;99.90
15072;DHT22;7635;56.696;13.002;2023-03-01T01:59:25;-1.90;99.90
15072;DHT22;7635;56.696;13.002;2023-03-01T02:01:53;-1.90;99.90
15072;DHT22;7635;56.696;13.002;2023-03-01T02:04:21;-1.90;99.90
15072;DHT22;7635;56.696;13.002;2023-03-01T02:06:51;-1.90;99.90
15072;DHT22;7635;56.696;13.002;2023-03-01T02:09:20;-1.90;99.90
15072;DHT22;7635;56.696;13.002;2023-03-01T02:11:48;-1.90;99.90
15072;DHT22;7635;56.696;13.002;2023-03-01T02:14:16;-1.90;99.90
15072;DHT22;7635;56.696;13.002;2023-03-01T02:16:44;-2.00;99.90
15072;DHT22;7635;56.696;13.002;2023-03-01T02:19:20;-1.90;99.90
15072;DHT22;7635;56.696;13.002;2023-03-01T02:21:55;-2.00;99.90
15072;DHT22;7635;56.696;13.002;2023-03-01T02:24:28;-2.00;99.90
15072;DHT22;7635;56.696;13.002;2023-03-01T02:27:00;-2.00;99.90
15072;DHT22;7635;56.696;13.002;2023-03-01T02:29:29;-2.00;99.90
15072;DHT22;7635;56.696;13.002;2023-03-01T02:31:57;-2.10;99.90
15072;DHT22;7635;56.696;13.002;2023-03-01T02:34:25;-2.10;99.90
15072;DHT22;7635;56.696;13.002;2023-03-01T02:36:55;-2.10;99.90
15072;DHT22;7635;56.696;13.002;2023-03-01T02:39:26;-2.10;99.90
15072;DHT22;7635;56.696;13.002;2023-03-01T02:41:54;-2.10;99.90
15072;DHT22;7635;56.696;13.002;2023-03-01T02:44:22;-2.20;99.90
15072;DHT22;7635;56.696;13.002;2023-03-01T02:46:53;-2.10;99.90
15072;DHT22;7635;56.696;13.002;2023-03-01T02:49:23;-2.20;99.90
15072;DHT22;7635;56.696;13.002;2023-03-01T02:54:50;-2.20;99.90
15072;DHT22;7635;56.696;13.002;2023-03-01T02:57:18;-2.20;99.90
15072;DHT22;7635;56.696;13.002;2023-03-01T02:59:47;-2.30;99.90
15072;DHT22;7635;56.696;13.002;2023-03-01T03:02:24;-2.30;99.90
15072;DHT22;7635;56.696;13.002;2023-03-01T03:05:02;-2.20;99.90
15072;DHT22;7635;56.696;13.002;2023-03-01T03:07:32;-2.20;99.90
15072;DHT22;7635;56.696;13.002;2023-03-01T03:09:58;-2.20;99.90
15072;DHT22;7635;56.696;13.002;2023-03-01T03:12:25;-2.20;99.90
15072;DHT22;7635;56.696;13.002;2023-03-01T03:14:52;-2.20;99.90
15072;DHT22;7635;56.696;13.002;2023-03-01T03:17:18;-2.20;99.90
15072;DHT22;7635;56.696;13.002;2023-03-01T03:19:46;-2.20;99.90
15072;DHT22;7635;56.696;13.002;2023-03-01T03:22:13;-2.20;99.90
15072;DHT22;7635;56.696;13.002;2023-03-01T03:24:40;-2.30;99.90
15072;DHT22;7635;56.696;13.002;2023-03-01T03:27:07;-2.30;99.90
15072;DHT22;7635;56.696;13.002;2023-03-01T03:29:34;-2.30;99.90
15072;DHT22;7635;56.696;13.002;2023-03-01T03:32:01;-2.30;99.90
15072;DHT22;7635;56.696;13.002;2023-03-01T03:34:28;-2.30;99.90
15072;DHT22;7635;56.696;13.002;2023-03-01T03:36:56;-2.40;99.90
15072;DHT22;7635;56.696;13.002;2023-03-01T03:39:25;-2.40;99.90
15072;DHT22;7635;56.696;13.002;2023-03-01T03:41:52;-2.50;99.90
15072;DHT22;7635;56.696;13.002;2023-03-01T03:44:19;-2.50;99.90
15072;DHT22;7635;56.696;13.002;2023-03-01T03:46:45;-2.50;99.90
15072;DHT22;7635;56.696;13.002;2023-03-01T03:49:12;-2.40;99.90
15072;DHT22;7635;56.696;13.002;2023-03-01T03:51:39;-2.40;99.90
15072;DHT22;7635;56.696;13.002;2023-03-01T03:54:07;-2.50;99.90
15072;DHT22;7635;56.696;13.002;2023-03-01T03:56:33;-2.40;99.90
15072;DHT22;7635;56.696;13.002;2023-03-01T03:59:00;-2.40;99.90
15072;DHT22;7635;56.696;13.002;2023-03-01T04:01:27;-2.40;99.90
15072;DHT22;7635;56.696;13.002;2023-03-01T04:03:53;-2.50;99.90
15072;DHT22;7635;56.696;13.002;2023-03-01T04:06:21;-2.50;99.90
15072;DHT22;7635;56.696;13.002;2023-03-01T04:08:48;-2.50;99.90
15072;DHT22;7635;56.696;13.002;2023-03-01T04:11:17;-2.50;99.90
15072;DHT22;7635;56.696;13.002;2023-03-01T04:13:55;-2.50;99.90
15072;DHT22;7635;56.696;13.002;2023-03-01T04:16:21;-2.60;99.90
15072;DHT22;7635;56.696;13.002;2023-03-01T04:18:48;-2.60;99.90
15072;DHT22;7635;56.696;13.002;2023-03-01T04:21:15;-2.60;99.90
15072;DHT22;7635;56.696;13.002;2023-03-01T04:23:42;-2.60;99.90
15072;DHT22;7635;56.696;13.002;2023-03-01T04:26:09;-2.60;99.90
15072;DHT22;7635;56.696;13.002;2023-03-01T04:28:39;-2.60;99.90
15072;DHT22;7635;56.696;13.002;2023-03-01T04:31:10;-2.60;99.90
15072;DHT22;7635;56.696;13.002;2023-03-01T04:33:39;-2.70;99.90
15072;DHT22;7635;56.696;13.002;2023-03-01T04:36:08;-2.70;99.90
15072;DHT22;7635;56.696;13.002;2023-03-01T04:38:35;-2.70;99.90
15072;DHT22;7635;56.696;13.002;2023-03-01T04:41:03;-2.80;99.90
15072;DHT22;7635;56.696;13.002;2023-03-01T04:43:30;-2.80;99.90
15072;DHT22;7635;56.696;13.002;2023-03-01T04:46:01;-2.80;99.90
15072;DHT22;7635;56.696;13.002;2023-03-01T04:48:29;-2.80;99.90
15072;DHT22;7635;56.696;13.002;2023-03-01T04:50:56;-2.80;99.90
15072;DHT22;7635;56.696;13.002;2023-03-01T04:53:23;-2.80;99.90
15072;DHT22;7635;56.696;13.002;2023-03-01T04:55:50;-2.90;99.90
15072;DHT22;7635;56.696;13.002;2023-03-01T04:58:16;-2.90;99.90
15072;DHT22;7635;56.696;13.002;2023-03-01T05:00:43;-2.90;99.90
15072;DHT22;7635;56.696;13.002;2023-03-01T05:03:11;-3.00;99.90
15072;DHT22;7635;56.696;13.002;2023-03-01T05:05:42;-3.00;99.90
15072;DHT22;7635;56.696;13.002;2023-03-01T05:08:09;-3.00;99.90
15072;DHT22;7635;56.696;13.002;2023-03-01T05:10:44;-3.00;99.90
15072;DHT22;7635;56.696;13.002;2023-03-01T05:13:12;-3.00;99.90
15072;DHT22;7635;56.696;13.002;2023-03-01T05:15:40;-3.00;99.90
15072;DHT22;7635;56.696;13.002;2023-03-01T05:18:07;-3.00;99.90
15072;DHT22;7635;56.696;13.002;2023-03-01T05:20:38;-3.00;99.90
15072;DHT22;7635;56.696;13.002;2023-03-01T05:23:04;-3.00;99.90
15072;DHT22;7635;56.696;13.002;2023-03-01T05:25:32;-3.10;99.90
15072;DHT22;7635;56.696;13.002;2023-03-01T05:28:00;-3.10;99.90
15072;DHT22;7635;56.696;13.002;2023-03-01T05:30:30;-3.10;99.90
15072;DHT22;7635;56.696;13.002;2023-03-01T05:32:56;-3.10;99.90
15072;DHT22;7635;56.696;13.002;2023-03-01T05:35:23;-3.10;99.90
15072;DHT22;7635;56.696;13.002;2023-03-01T05:37:51;-3.10;99.90
15072;DHT22;7635;56.696;13.002;2023-03-01T05:40:20;-3.10;99.90
15072;DHT22;7635;56.696;13.002;2023-03-01T05:42:49;-3.10;99.90
15072;DHT22;7635;56.696;13.002;2023-03-01T05:45:17;-3.10;99.90
15072;DHT22;7635;56.696;13.002;2023-03-01T05:47:45;-3.10;99.90
15072;DHT22;7635;56.696;13.002;2023-03-01T05:50:13;-3.10;99.90
15072;DHT22;7635;56.696;13.002;2023-03-01T05:52:44;-3.10;99.90
15072;DHT22;7635;56.696;13.002;2023-03-01T05:55:13;-3.20;99.90
15072;DHT22;7635;56.696;13.002;2023-03-01T05:57:40;-3.10;99.90
15072;DHT22;7635;56.696;13.002;2023-03-01T06:00:08;-3.10;99.90
15072;DHT22;7635;56.696;13.002;2023-03-01T06:02:35;-3.10;99.90
15072;DHT22;7635;56.696;13.002;2023-03-01T06:05:01;-3.10;99.90
15072;DHT22;7635;56.696;13.002;2023-03-01T06:07:28;-3.20;99.90
15072;DHT22;7635;56.696;13.002;2023-03-01T06:09:55;-3.10;99.90
15072;DHT22;7635;56.696;13.002;2023-03-01T06:12:23;-3.20;99.90
15072;DHT22;7635;56.696;13.002;2023-03-01T06:14:50;-3.20;99.90
15072;DHT22;7635;56.696;13.002;2023-03-01T06:17:16;-3.20;99.90
15072;DHT22;7635;56.696;13.002;2023-03-01T06:19:43;-3.20;99.90
15072;DHT22;7635;56.696;13.002;2023-03-01T06:22:10;-3.20;99.90
15072;DHT22;7635;56.696;13.002;2023-03-01T06:24:36;-3.20;99.90
15072;DHT22;7635;56.696;13.002;2023-03-01T06:27:03;-3.20;99.90
15072;DHT22;7635;56.696;13.002;2023-03-01T06:29:32;-3.20;99.90
15072;DHT22;7635;56.696;13.002;2023-03-01T06:31:59;-3.20;99.90
15072;DHT22;7635;56.696;13.002;2023-03-01T06:34:26;-3.20;99.90
15072;DHT22;7635;56.696;13.002;2023-03-01T06:36:53;-3.10;99.90
15072;DHT22;7635;56.696;13.002;2023-03-01T06:39:19;-3.10;99.90
15072;DHT22;7635;56.696;13.002;2023-03-01T06:41:46;-3.10;99.90
15072;DHT22;7635;56.696;13.002;2023-03-01T06:44:13;-3.10;99.90
15072;DHT22;7635;56.696;13.002;2023-03-01T06:46:41;-3.00;99.90
15072;DHT22;7635;56.696;13.002;2023-03-01T06:49:08;-3.00;99.90
15072;DHT22;7635;56.696;13.002;2023-03-01T06:51:35;-3.00;99.90
15072;DHT22;7635;56.696;13.002;2023-03-01T06:54:03;-3.00;99.90
15072;DHT22;7635;56.696;13.002;2023-03-01T06:56:29;-3.00;99.90
15072;DHT22;7635;56.696;13.002;2023-03-01T06:58:56;-2.90;99.90
15072;DHT22;7635;56.696;13.002;2023-03-01T07:01:23;-2.90;99.90
15072;DHT22;7635;56.696;13.002;2023-03-01T07:03:51;-2.90;99.90
15072;DHT22;7635;56.696;13.002;2023-03-01T07:06:18;-2.90;99.90
15072;DHT22;7635;56.696;13.002;2023-03-01T07:08:44;-2.90;99.90
15072;DHT22;7635;56.696;13.002;2023-03-01T07:11:11;-2.90;99.90
15072;DHT22;7635;56.696;13.002;2023-03-01T07:13:38;-2.90;99.90
15072;DHT22;7635;56.696;13.002;2023-03-01T07:16:05;-2.80;99.90
15072;DHT22;7635;56.696;13.002;2023-03-01T07:18:32;-2.80;99.90
15072;DHT22;7635;56.696;13.002;2023-03-01T07:21:05;-2.70;99.90
15072;DHT22;7635;56.696;13.002;2023-03-01T07:23:32;-2.70;99.90
15072;DHT22;7635;56.696;13.002;2023-03-01T07:25:59;-2.70;99.90
15072;DHT22;7635;56.696;13.002;2023-03-01T07:28:26;-2.70;99.90
15072;DHT22;7635;56.696;13.002;2023-03-01T07:30:53;-2.60;99.90
15072;DHT22;7635;56.696;13.002;2023-03-01T07:33:20;-2.60;99.90
15072;DHT22;7635;56.696;13.002;2023-03-01T07:35:47;-2.60;99.90
15072;DHT22;7635;56.696;13.002;2023-03-01T07:38:15;-2.50;99.90
15072;DHT22;7635;56.696;13.002;2023-03-01T07:40:42;-2.40;99.90
15072;DHT22;7635;56.696;13.002;2023-03-01T07:43:08;-2.40;99.90
15072;DHT22;7635;56.696;13.002;2023-03-01T07:45:35;-2.40;99.90
15072;DHT22;7635;56.696;13.002;2023-03-01T07:48:02;-2.30;99.90
15072;DHT22;7635;56.696;13.002;2023-03-01T07:50:29;-2.30;99.90
15072;DHT22;7635;56.696;13.002;2023-03-01T07:52:55;-2.20;99.90
15072;DHT22;7635;56.696;13.002;2023-03-01T07:55:23;-2.20;99.90
15072;DHT22;7635;56.696;13.002;2023-03-01T07:57:50;-2.10;99.90
15072;DHT22;7635;56.696;13.002;2023-03-01T08:00:17;-2.10;99.90
15072;DHT22;7635;56.696;13.002;2023-03-01T08:02:44;-2.00;99.90
15072;DHT22;7635;56.696;13.002;2023-03-01T08:05:11;-1.90;99.90
15072;DHT22;7635;56.696;13.002;2023-03-01T08:07:37;-1.80;99.90
15072;DHT22;7635;56.696;13.002;2023-03-01T08:10:05;-1.70;99.90
15072;DHT22;7635;56.696;13.002;2023-03-01T08:12:33;-1.60;99.90
15072;DHT22;7635;56.696;13.002;2023-03-01T08:14:59;-1.60;99.90
15072;DHT22;7635;56.696;13.002;2023-03-01T08:17:26;-1.40;99.90
15072;DHT22;7635;56.696;13.002;2023-03-01T08:19:53;-1.40;99.90
15072;DHT22;7635;56.696;13.002;2023-03-01T08:22:19;-1.00;99.90
15072;DHT22;7635;56.696;13.002;2023-03-01T08:24:46;-0.60;99.90
15072;DHT22;7635;56.696;13.002;2023-03-01T08:27:14;-0.20;99.90
15072;DHT22;7635;56.696;13.002;2023-03-01T08:29:43;0.30;99.90
15072;DHT22;7635;56.696;13.002;2023-03-01T08:32:09;0.80;99.90
15072;DHT22;7635;56.696;13.002;2023-03-01T08:34:36;1.40;99.90
15072;DHT22;7635;56.696;13.002;2023-03-01T08:37:03;2.00;99.90
15072;DHT22;7635;56.696;13.002;2023-03-01T08:39:29;2.70;99.90
15072;DHT22;7635;56.696;13.002;2023-03-01T08:41:56;3.30;99.90
15072;DHT22;7635;56.696;13.002;2023-03-01T08:44:23;4.00;99.90
15072;DHT22;7635;56.696;13.002;2023-03-01T08:46:52;4.60;99.90
15072;DHT22;7635;56.696;13.002;2023-03-01T08:49:21;5.00;99.90
15072;DHT22;7635;56.696;13.002;2023-03-01T08:51:49;5.50;99.90
15072;DHT22;7635;56.696;13.002;2023-03-01T08:54:17;6.00;99.90
15072;DHT22;7635;56.696;13.002;2023-03-01T08:56:44;6.40;99.90
15072;DHT22;7635;56.696;13.002;2023-03-01T08:59:13;6.80;99.90
15072;DHT22;7635;56.696;13.002;2023-03-01T09:01:40;7.30;99.90
15072;DHT22;7635;56.696;13.002;2023-03-01T09:04:10;7.70;99.90
15072;DHT22;7635;56.696;13.002;2023-03-01T09:06:37;8.00;99.90
15072;DHT22;7635;56.696;13.002;2023-03-01T09:09:05;8.50;99.90
15072;DHT22;7635;56.696;13.002;2023-03-01T09:11:32;8.70;99.90
15072;DHT22;7635;56.696;13.002;2023-03-01T09:13:59;9.10;99.90
15072;DHT22;7635;56.696;13.002;2023-03-01T09:16:25;9.40;99.90
15072;DHT22;7635;56.696;13.002;2023-03-01T09:18:53;9.70;99.90
15072;DHT22;7635;56.696;13.002;2023-03-01T09:21:23;10.10;99.90
15072;DHT22;7635;56.696;13.002;2023-03-01T09:23:49;10.30;99.90
15072;DHT22;7635;56.696;13.002;2023-03-01T09:26:18;10.70;99.90
15072;DHT22;7635;56.696;13.002;2023-03-01T09:28:47;11.00;99.90
15072;DHT22;7635;56.696;13.002;2023-03-01T09:31:14;11.20;99.90
15072;DHT22;7635;56.696;13.002;2023-03-01T09:33:42;11.40;99.90
15072;DHT22;7635;56.696;13.002;2023-03-01T09:36:12;11.70;99.90
15072;DHT22;7635;56.696;13.002;2023-03-01T09:38:40;12.00;99.90
15072;DHT22;7635;56.696;13.002;2023-03-01T09:41:10;12.30;99.90
15072;DHT22;7635;56.696;13.002;2023-03-01T09:43:44;12.60;99.90
15072;DHT22;7635;56.696;13.002;2023-03-01T09:46:13;12.90;99.90
15072;DHT22;7635;56.696;13.002;2023-03-01T09:48:44;13.10;99.90
15072;DHT22;7635;56.696;13.002;2023-03-01T09:51:16;13.30;99.90
15072;DHT22;7635;56.696;13.002;2023-03-01T09:53:45;13.50;99.90
15072;DHT22;7635;56.696;13.002;2023-03-01T09:56:17;13.70;99.90
15072;DHT22;7635;56.696;13.002;2023-03-01T09:58:50;13.90;99.90
15072;DHT22;7635;56.696;13.002;2023-03-01T10:01:29;14.20;99.90
15072;DHT22;7635;56.696;13.002;2023-03-01T10:04:28;14.40;99.90
15072;DHT22;7635;56.696;13.002;2023-03-01T10:07:05;14.60;99.90
15072;DHT22;7635;56.696;13.002;2023-03-01T10:09:36;14.80;99.90
15072;DHT22;7635;56.696;13.002;2023-03-01T10:12:07;15.00;99.90
15072;DHT22;7635;56.696;13.002;2023-03-01T10:14:37;15.20;99.90
15072;DHT22;7635;56.696;13.002;2023-03-01T10:17:12;15.40;99.90
15072;DHT22;7635;56.696;13.002;2023-03-01T10:19:45;15.60;99.90
15072;DHT22;7635;56.696;13.002;2023-03-01T10:22:15;15.90;99.90
15072;DHT22;7635;56.696;13.002;2023-03-01T10:24:44;16.00;99.90
15072;DHT22;7635;56.696;13.002;2023-03-01T10:27:16;16.20;99.90
15072;DHT22;7635;56.696;13.002;2023-03-01T10:29:49;16.40;99.90
15072;DHT22;7635;56.696;13.002;2023-03-01T10:32:18;16.60;99.90
15072;DHT22;7635;56.696;13.002;2023-03-01T10:34:47;16.90;99.90
15072;DHT22;7635;56.696;13.002;2023-03-01T10:37:15;17.10;99.90
15072;DHT22;7635;56.696;13.002;2023-03-01T10:40:00;17.30;99.90
15072;DHT22;7635;56.696;13.002;2023-03-01T10:42:33;17.40;99.90
15072;DHT22;7635;56.696;13.002;2023-03-01T10:45:17;17.70;99.90
15072;DHT22;7635;56.696;13.002;2023-03-01T10:48:04;17.70;99.90
15072;DHT22;7635;56.696;13.002;2023-03-01T10:50:31;17.90;99.90
15072;DHT22;7635;56.696;13.002;2023-03-01T10:52:59;18.30;99.90
15072;DHT22;7635;56.696;13.002;2023-03-01T10:55:33;18.40;99.90
15072;DHT22;7635;56.696;13.002;2023-03-01T10:58:15;18.40;99.90
15072;DHT22;7635;56.696;13.002;2023-03-01T11:00:47;18.60;99.90
15072;DHT22;7635;56.696;13.002;2023-03-01T11:03:18;18.60;99.90
15072;DHT22;7635;56.696;13.002;2023-03-01T11:05:58;18.70;99.90
15072;DHT22;7635;56.696;13.002;2023-03-01T11:08:39;18.70;99.90
15072;DHT22;7635;56.696;13.002;2023-03-01T11:11:17;18.80;99.90
15072;DHT22;7635;56.696;13.002;2023-03-01T11:13:54;18.80;99.90
15072;DHT22;7635;56.696;13.002;2023-03-01T11:16:39;18.60;99.90
15072;DHT22;7635;56.696;13.002;2023-03-01T11:19:20;18.30;99.90
15072;DHT22;7635;56.696;13.002;2023-03-01T11:21:54;18.10;99.90
15072;DHT22;7635;56.696;13.002;2023-03-01T11:24:26;18.00;99.90
15072;DHT22;7635;56.696;13.002;2023-03-01T11:26:55;17.90;99.90
15072;DHT22;7635;56.696;13.002;2023-03-01T11:29:27;17.90;99.90
15072;DHT22;7635;56.696;13.002;2023-03-01T11:31:59;17.90;99.90
15072;DHT22;7635;56.696;13.002;2023-03-01T11:34:38;17.80;99.90
15072;DHT22;7635;56.696;13.002;2023-03-01T11:37:15;17.70;99.90
15072;DHT22;7635;56.696;13.002;2023-03-01T11:39:47;17.60;99.90
15072;DHT22;7635;56.696;13.002;2023-03-01T11:42:20;17.50;99.90
15072;DHT22;7635;56.696;13.002;2023-03-01T11:44:49;17.30;99.90
15072;DHT22;7635;56.696;13.002;2023-03-01T11:47:30;17.10;99.90
15072;DHT22;7635;56.696;13.002;2023-03-01T11:50:20;16.80;99.90
15072;DHT22;7635;56.696;13.002;2023-03-01T11:53:03;16.60;99.90
15072;DHT22;7635;56.696;13.002;2023-03-01T11:55:45;16.40;99.90
15072;DHT22;7635;56.696;13.002;2023-03-01T11:58:31;16.30;99.90
15072;DHT22;7635;56.696;13.002;2023-03-01T12:01:19;16.10;99.90
15072;DHT22;7635;56.696;13.002;2023-03-01T12:06:50;15.90;99.90
15072;DHT22;7635;56.696;13.002;2023-03-01T12:09:31;15.90;99.90
15072;DHT22;7635;56.696;13.002;2023-03-01T12:12:24;15.80;99.90
15072;DHT22;7635;56.696;13.002;2023-03-01T12:15:03;15.90;99.90
15072;DHT22;7635;56.696;13.002;2023-03-01T12:17:47;15.80;99.90
15072;DHT22;7635;56.696;13.002;2023-03-01T12:20:20;15.70;99.90
15072;DHT22;7635;56.696;13.002;2023-03-01T12:23:20;15.50;99.90
15072;DHT22;7635;56.696;13.002;2023-03-01T12:25:55;15.50;99.90
15072;DHT22;7635;56.696;13.002;2023-03-01T12:34:55;14.60;99.90
15072;DHT22;7635;56.696;13.002;2023-03-01T12:37:33;14.30;99.90
15072;DHT22;7635;56.696;13.002;2023-03-01T12:40:30;14.20;99.90
15072;DHT22;7635;56.696;13.002;2023-03-01T12:43:10;14.00;99.90
15072;DHT22;7635;56.696;13.002;2023-03-01T12:46:06;14.00;99.90
15072;DHT22;7635;56.696;13.002;2023-03-01T12:48:43;13.90;99.90
15072;DHT22;7635;56.696;13.002;2023-03-01T12:51:14;13.80;99.90
15072;DHT22;7635;56.696;13.002;2023-03-01T12:53:45;13.60;99.90
15072;DHT22;7635;56.696;13.002;2023-03-01T12:56:17;13.40;99.90
15072;DHT22;7635;56.696;13.002;2023-03-01T12:58:54;13.20;99.90
15072;DHT22;7635;56.696;13.002;2023-03-01T13:01:36;13.00;99.90
15072;DHT22;7635;56.696;13.002;2023-03-01T13:04:22;12.80;99.90
15072;DHT22;7635;56.696;13.002;2023-03-01T13:07:09;12.60;99.90
15072;DHT22;7635;56.696;13.002;2023-03-01T13:09:43;12.30;99.90
15072;DHT22;7635;56.696;13.002;2023-03-01T13:15:34;12.00;99.90
15072;DHT22;7635;56.696;13.002;2023-03-01T13:18:03;11.80;99.90
15072;DHT22;7635;56.696;13.002;2023-03-01T13:20:34;11.80;99.90
15072;DHT22;7635;56.696;13.002;2023-03-01T13:23:12;11.70;99.90
15072;DHT22;7635;56.696;13.002;2023-03-01T13:26:01;11.60;99.90
15072;DHT22;7635;56.696;13.002;2023-03-01T13:28:58;11.40;99.90
15072;DHT22;7635;56.696;13.002;2023-03-01T13:31:59;11.30;99.90
15072;DHT22;7635;56.696;13.002;2023-03-01T13:34:49;11.10;99.90
15072;DHT22;7635;56.696;13.002;2023-03-01T13:37:23;11.10;99.90
15072;DHT22;7635;56.696;13.002;2023-03-01T13:39:52;11.10;99.90
15072;DHT22;7635;56.696;13.002;2023-03-01T13:45:23;11.10;99.90
15072;DHT22;7635;56.696;13.002;2023-03-01T13:47:55;11.00;99.90
15072;DHT22;7635;56.696;13.002;2023-03-01T13:50:25;11.00;99.90
15072;DHT22;7635;56.696;13.002;2023-03-01T13:52:57;10.90;99.90
15072;DHT22;7635;56.696;13.002;2023-03-01T13:55:34;10.80;99.90
15072;DHT22;7635;56.696;13.002;2023-03-01T13:58:04;10.80;99.90
15072;DHT22;7635;56.696;13.002;2023-03-01T14:00:34;10.80;99.90
15072;DHT22;7635;56.696;13.002;2023-03-01T14:03:09;10.80;99.90
15072;DHT22;7635;56.696;13.002;2023-03-01T14:05:37;10.80;99.90
15072;DHT22;7635;56.696;13.002;2023-03-01T14:08:19;10.80;99.90
15072;DHT22;7635;56.696;13.002;2023-03-01T14:10:54;10.80;99.90
15072;DHT22;7635;56.696;13.002;2023-03-01T14:13:32;10.70;99.90
15072;DHT22;7635;56.696;13.002;2023-03-01T14:16:15;10.70;99.90
15072;DHT22;7635;56.696;13.002;2023-03-01T14:18:47;10.60;99.90
15072;DHT22;7635;56.696;13.002;2023-03-01T14:21:17;10.50;99.90
15072;DHT22;7635;56.696;13.002;2023-03-01T14:23:46;10.50;99.90
15072;DHT22;7635;56.696;13.002;2023-03-01T14:26:12;10.50;99.90
15072;DHT22;7635;56.696;13.002;2023-03-01T14:28:39;10.40;99.90
15072;DHT22;7635;56.696;13.002;2023-03-01T14:31:37;10.40;99.90
15072;DHT22;7635;56.696;13.002;2023-03-01T14:34:05;10.40;99.90
15072;DHT22;7635;56.696;13.002;2023-03-01T14:36:33;10.30;99.90
15072;DHT22;7635;56.696;13.002;2023-03-01T14:39:16;10.20;99.90
15072;DHT22;7635;56.696;13.002;2023-03-01T14:41:43;10.20;99.90
15072;DHT22;7635;56.696;13.002;2023-03-01T14:44:15;10.10;99.90
15072;DHT22;7635;56.696;13.002;2023-03-01T14:46:44;10.10;99.90
15072;DHT22;7635;56.696;13.002;2023-03-01T14:49:13;10.00;99.90
15072;DHT22;7635;56.696;13.002;2023-03-01T14:51:43;10.00;99.90
15072;DHT22;7635;56.696;13.002;2023-03-01T14:54:21;10.00;99.90
15072;DHT22;7635;56.696;13.002;2023-03-01T14:56:50;9.90;99.90
15072;DHT22;7635;56.696;13.002;2023-03-01T14:59:21;9.90;99.90
15072;DHT22;7635;56.696;13.002;2023-03-01T15:01:48;9.90;99.90
15072;DHT22;7635;56.696;13.002;2023-03-01T15:04:15;9.80;99.90
15072;DHT22;7635;56.696;13.002;2023-03-01T15:06:42;9.80;99.90
15072;DHT22;7635;56.696;13.002;2023-03-01T15:09:14;9.80;99.90
15072;DHT22;7635;56.696;13.002;2023-03-01T15:11:43;9.70;99.90
15072;DHT22;7635;56.696;13.002;2023-03-01T15:14:28;9.70;99.90
15072;DHT22;7635;56.696;13.002;2023-03-01T15:16:55;9.60;99.90
15072;DHT22;7635;56.696;13.002;2023-03-01T15:19:24;9.60;99.90
15072;DHT22;7635;56.696;13.002;2023-03-01T15:21:54;9.50;99.90
15072;DHT22;7635;56.696;13.002;2023-03-01T15:24:23;9.50;99.90
15072;DHT22;7635;56.696;13.002;2023-03-01T15:26:54;9.40;99.90
15072;DHT22;7635;56.696;13.002;2023-03-01T15:29:25;9.40;99.90
15072;DHT22;7635;56.696;13.002;2023-03-01T15:31:57;9.30;99.90
15072;DHT22;7635;56.696;13.002;2023-03-01T15:34:25;9.30;99.90
15072;DHT22;7635;56.696;13.002;2023-03-01T15:36:53;9.20;99.90
15072;DHT22;7635;56.696;13.002;2023-03-01T15:39:39;9.10;99.90
15072;DHT22;7635;56.696;13.002;2023-03-01T15:42:11;9.00;99.90
15072;DHT22;7635;56.696;13.002;2023-03-01T15:44:39;9.00;99.90
15072;DHT22;7635;56.696;13.002;2023-03-01T15:47:25;8.90;99.90
15072;DHT22;7635;56.696;13.002;2023-03-01T15:49:53;8.80;99.90
15072;DHT22;7635;56.696;13.002;2023-03-01T15:52:23;8.70;99.90
15072;DHT22;7635;56.696;13.002;2023-03-01T15:54:55;8.70;99.90
15072;DHT22;7635;56.696;13.002;2023-03-01T15:57:23;8.60;99.90
15072;DHT22;7635;56.696;13.002;2023-03-01T15:59:50;8.50;99.90
15072;DHT22;7635;56.696;13.002;2023-03-01T16:02:16;8.40;99.90
15072;DHT22;7635;56.696;13.002;2023-03-01T16:04:47;8.30;99.90
15072;DHT22;7635;56.696;13.002;2023-03-01T16:07:14;8.20;99.90
15072;DHT22;7635;56.696;13.002;2023-03-01T16:09:41;8.10;99.90
15072;DHT22;7635;56.696;13.002;2023-03-01T16:12:13;8.00;99.90